sensor_id;sensor_type;location;lat;lon;timestamp;P1;durP1;ratioP1;P2;durP2;ratioP2
7675;SDS011;3880;51.464;-2.566;2022-12-18T00:00:45;65.77;;;34.63;;
7675;SDS011;3880;51.464;-2.566;2022-12-18T00:03:13;71.23;;;36.87;;
7675;SDS011;3880;51.464;-2.566;2022-12-18T00:05:47;70.27;;;35.77;;
7675;SDS011;3880;51.464;-2.566;2022-12-18T06:04:41;34.00;;;15.73;;
7675;SDS011;3880;51.464;-2.566;2022-12-18T06:07:08;30.43;;;16.20;;
7675;SDS011;3880;51.464;-2.566;2022-12-18T06:09:35;32.63;;;17.97;;
7675;SDS011;3880;51.464;-2.566;2022-12-18T06:12:02;28.53;;;17.00;;
7675;SDS011;3880;51.464;-2.566;2022-12-18T06:14:30;29.17;;;16.90;;
7675;SDS011;3880;51.464;-2.566;2022-12-18T06:16:57;31.90;;;17.43;;
7675;SDS011;3880;51.464;-2.566;2022-12-18T06:19:25;42.90;;;17.20;;
7675;SDS011;3880;51.464;-2.566;2022-12-18T06:21:52;34.97;;;17.33;;
7675;SDS011;3880;51.464;-2.566;2022-12-18T06:24:19;33.43;;;17.00;;
7675;SDS011;3880;51.464;-2.566;2022-12-18T06:26:46;32.23;;;18.03;;
7675;SDS011;3880;51.464;-2.566;2022-12-18T06:29:13;34.97;;;17.50;;
7675;SDS011;3880;51.464;-2.566;2022-12-18T06:31:40;34.03;;;18.47;;
7675;SDS011;3880;51.464;-2.566;2022-12-18T06:34:07;30.97;;;16.90;;
7675;SDS011;3880;51.464;-2.566;2022-12-18T06:36:36;38.40;;;16.67;;
7675;SDS011;3880;51.464;-2.566;2022-12-18T06:39:03;28.03;;;17.70;;
7675;SDS011;3880;51.464;-2.566;2022-12-18T06:41:29;32.73;;;17.43;;
7675;SDS011;3880;51.464;-2.566;2022-12-18T06:43:57;34.47;;;18.23;;
7675;SDS011;3880;51.464;-2.566;2022-12-18T06:46:24;37.17;;;18.53;;
7675;SDS011;3880;51.464;-2.566;2022-12-18T06:48:51;31.47;;;17.73;;
7675;SDS011;3880;51.464;-2.566;2022-12-18T06:51:18;31.50;;;19.07;;
7675;SDS011;3880;51.464;-2.566;2022-12-18T06:53:47;34.20;;;16.13;;
7675;SDS011;3880;51.464;-2.566;2022-12-18T06:56:14;33.13;;;16.93;;
7675;SDS011;3880;51.464;-2.566;2022-12-18T06:58:42;30.93;;;17.80;;
7675;SDS011;3880;51.464;-2.566;2022-12-18T07:01:10;30.83;;;17.27;;
7675;SDS011;3880;51.464;-2.566;2022-12-18T07:03:38;30.40;;;18.03;;
7675;SDS011;3880;51.464;-2.566;2022-12-18T07:06:06;28.57;;;16.37;;
7675;SDS011;3880;51.464;-2.566;2022-12-18T07:08:38;27.47;;;16.83;;
7675;SDS011;3880;51.464;-2.566;2022-12-18T07:11:07;32.90;;;17.20;;
7675;SDS011;3880;51.464;-2.566;2022-12-18T07:13:34;34.73;;;18.07;;
7675;SDS011;3880;51.464;-2.566;2022-12-18T07:16:05;30.43;;;17.03;;
7675;SDS011;3880;51.464;-2.566;2022-12-18T07:18:33;42.23;;;17.17;;
7675;SDS011;3880;51.464;-2.566;2022-12-18T07:21:02;30.63;;;17.20;;
7675;SDS011;3880;51.464;-2.566;2022-12-18T07:23:31;28.50;;;16.87;;
7675;SDS011;3880;51.464;-2.566;2022-12-18T07:26:00;30.27;;;17.47;;
7675;SDS011;3880;51.464;-2.566;2022-12-18T07:28:29;31.60;;;15.87;;
7675;SDS011;3880;51.464;-2.566;2022-12-18T07:30:57;29.77;;;18.10;;
7675;SDS011;3880;51.464;-2.566;2022-12-18T07:33:24;37.33;;;17.47;;
7675;SDS011;3880;51.464;-2.566;2022-12-18T07:35:52;33.40;;;18.20;;
7675;SDS011;3880;51.464;-2.566;2022-12-18T07:38:19;26.27;;;16.77;;
7675;SDS011;3880;51.464;-2.566;2022-12-18T07:40:46;31.23;;;18.50;;
7675;SDS011;3880;51.464;-2.566;2022-12-18T07:43:13;27.27;;;15.80;;
7675;SDS011;3880;51.464;-2.566;2022-12-18T07:45:41;33.20;;;17.83;;
7675;SDS011;3880;51.464;-2.566;2022-12-18T07:48:09;29.73;;;17.50;;
7675;SDS011;3880;51.464;-2.566;2022-12-18T07:50:36;28.90;;;15.83;;
7675;SDS011;3880;51.464;-2.566;2022-12-18T07:53:03;29.30;;;15.50;;
7675;SDS011;3880;51.464;-2.566;2022-12-18T07:55:31;31.03;;;17.17;;
7675;SDS011;3880;51.464;-2.566;2022-12-18T07:58:00;25.90;;;15.60;;
7675;SDS011;3880;51.464;-2.566;2022-12-18T08:00:28;28.13;;;15.63;;
7675;SDS011;3880;51.464;-2.566;2022-12-18T08:02:56;26.30;;;14.97;;
7675;SDS011;3880;51.464;-2.566;2022-12-18T08:05:25;29.37;;;14.57;;
7675;SDS011;3880;51.464;-2.566;2022-12-18T08:07:53;27.70;;;15.63;;
7675;SDS011;3880;51.464;-2.566;2022-12-18T08:10:21;29.57;;;16.83;;
7675;SDS011;3880;51.464;-2.566;2022-12-18T08:12:49;29.90;;;15.87;;
7675;SDS011;3880;51.464;-2.566;2022-12-18T08:15:16;29.77;;;15.33;;
7675;SDS011;3880;51.464;-2.566;2022-12-18T08:17:43;31.37;;;15.90;;
7675;SDS011;3880;51.464;-2.566;2022-12-18T08:20:12;26.17;;;15.40;;
7675;SDS011;3880;51.464;-2.566;2022-12-18T08:22:40;30.13;;;16.00;;
7675;SDS011;3880;51.464;-2.566;2022-12-18T08:25:08;29.87;;;16.60;;
7675;SDS011;3880;51.464;-2.566;2022-12-18T08:27:35;26.87;;;15.20;;
7675;SDS011;3880;51.464;-2.566;2022-12-18T08:30:03;30.97;;;15.03;;
7675;SDS011;3880;51.464;-2.566;2022-12-18T08:32:31;29.23;;;14.07;;
7675;SDS011;3880;51.464;-2.566;2022-12-18T08:34:59;26.23;;;13.83;;
7675;SDS011;3880;51.464;-2.566;2022-12-18T08:37:27;27.50;;;16.40;;
7675;SDS011;3880;51.464;-2.566;2022-12-18T08:39:54;28.40;;;16.03;;
7675;SDS011;3880;51.464;-2.566;2022-12-18T08:42:21;33.37;;;14.97;;
7675;SDS011;3880;51.464;-2.566;2022-12-18T08:45:05;22.30;;;14.57;;
7675;SDS011;3880;51.464;-2.566;2022-12-18T08:47:33;26.53;;;14.53;;
7675;SDS011;3880;51.464;-2.566;2022-12-18T08:50:00;26.43;;;14.27;;
7675;SDS011;3880;51.464;-2.566;2022-12-18T08:52:30;24.10;;;14.50;;
7675;SDS011;3880;51.464;-2.566;2022-12-18T08:54:58;31.47;;;15.43;;
7675;SDS011;3880;51.464;-2.566;2022-12-18T08:57:25;22.73;;;14.37;;
7675;SDS011;3880;51.464;-2.566;2022-12-18T08:59:52;24.77;;;14.73;;
7675;SDS011;3880;51.464;-2.566;2022-12-18T09:02:19;27.30;;;14.37;;
7675;SDS011;3880;51.464;-2.566;2022-12-18T09:04:46;28.13;;;14.83;;
7675;SDS011;3880;51.464;-2.566;2022-12-18T09:07:13;26.57;;;14.33;;
7675;SDS011;3880;51.464;-2.566;2022-12-18T09:09:42;24.83;;;14.23;;
7675;SDS011;3880;51.464;-2.566;2022-12-18T09:12:09;28.00;;;15.40;;
7675;SDS011;3880;51.464;-2.566;2022-12-18T09:14:36;28.20;;;15.40;;
7675;SDS011;3880;51.464;-2.566;2022-12-18T09:17:03;23.47;;;13.73;;
7675;SDS011;3880;51.464;-2.566;2022-12-18T09:19:30;29.73;;;14.90;;
7675;SDS011;3880;51.464;-2.566;2022-12-18T09:21:57;24.63;;;15.13;;
7675;SDS011;3880;51.464;-2.566;2022-12-18T09:24:26;24.33;;;13.90;;
7675;SDS011;3880;51.464;-2.566;2022-12-18T09:26:54;25.07;;;14.67;;
7675;SDS011;3880;51.464;-2.566;2022-12-18T09:29:21;26.57;;;13.73;;
7675;SDS011;3880;51.464;-2.566;2022-12-18T09:31:48;26.10;;;14.40;;
7675;SDS011;3880;51.464;-2.566;2022-12-18T09:34:15;27.50;;;14.77;;
7675;SDS011;3880;51.464;-2.566;2022-12-18T09:36:43;28.03;;;14.53;;
7675;SDS011;3880;51.464;-2.566;2022-12-18T09:39:10;27.93;;;14.33;;
7675;SDS011;3880;51.464;-2.566;2022-12-18T09:41:44;25.93;;;14.10;;
7675;SDS011;3880;51.464;-2.566;2022-12-18T09:44:19;29.83;;;15.67;;
7675;SDS011;3880;51.464;-2.566;2022-12-18T09:46:58;24.87;;;14.67;;
7675;SDS011;3880;51.464;-2.566;2022-12-18T09:49:35;28.10;;;14.13;;
7675;SDS011;3880;51.464;-2.566;2022-12-18T09:52:08;28.90;;;14.77;;
7675;SDS011;3880;51.464;-2.566;2022-12-18T09:54:39;31.03;;;15.17;;
7675;SDS011;3880;51.464;-2.566;2022-12-18T09:57:13;23.80;;;14.13;;
7675;SDS011;3880;51.464;-2.566;2022-12-18T09:59:44;28.43;;;15.13;;
7675;SDS011;3880;51.464;-2.566;2022-12-18T10:02:18;25.80;;;15.17;;
7675;SDS011;3880;51.464;-2.566;2022-12-18T10:04:52;30.10;;;14.83;;
7675;SDS011;3880;51.464;-2.566;2022-12-18T10:07:35;31.97;;;16.07;;
7675;SDS011;3880;51.464;-2.566;2022-12-18T10:10:13;29.43;;;14.63;;
7675;SDS011;3880;51.464;-2.566;2022-12-18T10:12:51;34.93;;;18.27;;
7675;SDS011;3880;51.464;-2.566;2022-12-18T10:15:27;26.80;;;16.00;;
7675;SDS011;3880;51.464;-2.566;2022-12-18T10:18:02;25.73;;;16.17;;
7675;SDS011;3880;51.464;-2.566;2022-12-18T10:20:41;27.73;;;16.10;;
7675;SDS011;3880;51.464;-2.566;2022-12-18T10:23:12;29.07;;;16.20;;
7675;SDS011;3880;51.464;-2.566;2022-12-18T10:25:49;28.07;;;16.63;;
7675;SDS011;3880;51.464;-2.566;2022-12-18T10:28:21;29.40;;;16.37;;
7675;SDS011;3880;51.464;-2.566;2022-12-18T10:30:51;25.47;;;15.80;;
7675;SDS011;3880;51.464;-2.566;2022-12-18T10:33:19;35.53;;;18.73;;
7675;SDS011;3880;51.464;-2.566;2022-12-18T10:35:47;31.57;;;17.47;;
7675;SDS011;3880;51.464;-2.566;2022-12-18T10:38:23;32.73;;;17.70;;
7675;SDS011;3880;51.464;-2.566;2022-12-18T10:40:53;31.30;;;17.53;;
7675;SDS011;3880;51.464;-2.566;2022-12-18T10:43:23;29.77;;;16.67;;
7675;SDS011;3880;51.464;-2.566;2022-12-18T10:46:01;39.50;;;18.13;;
7675;SDS011;3880;51.464;-2.566;2022-12-18T10:48:32;26.37;;;16.13;;
7675;SDS011;3880;51.464;-2.566;2022-12-18T10:51:01;34.07;;;17.97;;
7675;SDS011;3880;51.464;-2.566;2022-12-18T10:53:30;31.37;;;18.13;;
7675;SDS011;3880;51.464;-2.566;2022-12-18T10:55:59;33.17;;;17.83;;
7675;SDS011;3880;51.464;-2.566;2022-12-18T10:58:27;33.47;;;18.13;;
7675;SDS011;3880;51.464;-2.566;2022-12-18T11:01:08;38.33;;;19.40;;
7675;SDS011;3880;51.464;-2.566;2022-12-18T11:03:37;31.13;;;17.90;;
7675;SDS011;3880;51.464;-2.566;2022-12-18T11:06:06;32.10;;;18.33;;
7675;SDS011;3880;51.464;-2.566;2022-12-18T11:08:35;28.57;;;17.80;;
7675;SDS011;3880;51.464;-2.566;2022-12-18T11:11:02;36.10;;;18.40;;
7675;SDS011;3880;51.464;-2.566;2022-12-18T11:13:34;32.13;;;18.17;;
7675;SDS011;3880;51.464;-2.566;2022-12-18T11:16:01;36.20;;;18.23;;
7675;SDS011;3880;51.464;-2.566;2022-12-18T11:18:29;35.37;;;18.60;;
7675;SDS011;3880;51.464;-2.566;2022-12-18T11:21:00;29.60;;;18.37;;
7675;SDS011;3880;51.464;-2.566;2022-12-18T11:23:33;38.60;;;20.23;;
7675;SDS011;3880;51.464;-2.566;2022-12-18T11:26:03;36.77;;;18.57;;
7675;SDS011;3880;51.464;-2.566;2022-12-18T11:28:37;37.03;;;19.80;;
7675;SDS011;3880;51.464;-2.566;2022-12-18T11:31:11;32.03;;;19.10;;
7675;SDS011;3880;51.464;-2.566;2022-12-18T11:33:50;36.80;;;19.43;;
7675;SDS011;3880;51.464;-2.566;2022-12-18T11:36:22;31.97;;;17.83;;
7675;SDS011;3880;51.464;-2.566;2022-12-18T11:38:52;34.40;;;19.73;;
7675;SDS011;3880;51.464;-2.566;2022-12-18T11:41:23;33.10;;;19.13;;
7675;SDS011;3880;51.464;-2.566;2022-12-18T11:44:15;29.73;;;19.53;;
7675;SDS011;3880;51.464;-2.566;2022-12-18T11:46:49;40.07;;;20.93;;
7675;SDS011;3880;51.464;-2.566;2022-12-18T11:49:22;35.90;;;19.77;;
7675;SDS011;3880;51.464;-2.566;2022-12-18T11:51:57;34.47;;;20.53;;
7675;SDS011;3880;51.464;-2.566;2022-12-18T11:54:28;34.77;;;20.00;;
7675;SDS011;3880;51.464;-2.566;2022-12-18T11:56:56;31.90;;;19.63;;
7675;SDS011;3880;51.464;-2.566;2022-12-18T11:59:31;34.23;;;20.20;;
7675;SDS011;3880;51.464;-2.566;2022-12-18T12:02:14;35.27;;;19.23;;
7675;SDS011;3880;51.464;-2.566;2022-12-18T12:07:47;29.70;;;18.77;;
7675;SDS011;3880;51.464;-2.566;2022-12-18T12:10:24;27.70;;;18.23;;
7675;SDS011;3880;51.464;-2.566;2022-12-18T12:13:12;32.20;;;17.97;;
7675;SDS011;3880;51.464;-2.566;2022-12-18T12:15:48;29.40;;;18.27;;
7675;SDS011;3880;51.464;-2.566;2022-12-18T12:18:26;27.90;;;17.20;;
7675;SDS011;3880;51.464;-2.566;2022-12-18T12:21:02;29.13;;;16.83;;
7675;SDS011;3880;51.464;-2.566;2022-12-18T12:23:37;32.17;;;18.50;;
7675;SDS011;3880;51.464;-2.566;2022-12-18T12:26:10;26.63;;;15.30;;
7675;SDS011;3880;51.464;-2.566;2022-12-18T12:31:42;32.13;;;16.73;;
7675;SDS011;3880;51.464;-2.566;2022-12-18T12:34:22;28.03;;;14.67;;
7675;SDS011;3880;51.464;-2.566;2022-12-18T12:37:03;28.17;;;16.93;;
7675;SDS011;3880;51.464;-2.566;2022-12-18T12:39:39;22.40;;;14.43;;
7675;SDS011;3880;51.464;-2.566;2022-12-18T12:42:11;24.83;;;15.13;;
7675;SDS011;3880;51.464;-2.566;2022-12-18T12:45:06;19.23;;;13.57;;
7675;SDS011;3880;51.464;-2.566;2022-12-18T12:47:43;25.00;;;13.87;;
7675;SDS011;3880;51.464;-2.566;2022-12-18T12:50:13;24.33;;;14.80;;
7675;SDS011;3880;51.464;-2.566;2022-12-18T12:52:44;18.60;;;12.30;;
7675;SDS011;3880;51.464;-2.566;2022-12-18T12:55:14;18.43;;;12.60;;
7675;SDS011;3880;51.464;-2.566;2022-12-18T12:57:46;23.70;;;11.93;;
7675;SDS011;3880;51.464;-2.566;2022-12-18T13:00:18;18.70;;;12.13;;
7675;SDS011;3880;51.464;-2.566;2022-12-18T13:02:48;19.10;;;12.27;;
7675;SDS011;3880;51.464;-2.566;2022-12-18T13:05:21;15.73;;;11.43;;
7675;SDS011;3880;51.464;-2.566;2022-12-18T13:07:57;19.10;;;12.80;;
7675;SDS011;3880;51.464;-2.566;2022-12-18T13:10:32;14.63;;;10.30;;
7675;SDS011;3880;51.464;-2.566;2022-12-18T13:13:01;15.30;;;10.07;;
7675;SDS011;3880;51.464;-2.566;2022-12-18T13:15:39;14.73;;;8.67;;
7675;SDS011;3880;51.464;-2.566;2022-12-18T13:18:18;13.37;;;9.43;;
7675;SDS011;3880;51.464;-2.566;2022-12-18T13:20:47;16.17;;;9.53;;
7675;SDS011;3880;51.464;-2.566;2022-12-18T13:23:27;16.57;;;11.90;;
7675;SDS011;3880;51.464;-2.566;2022-12-18T13:25:57;13.30;;;9.17;;
7675;SDS011;3880;51.464;-2.566;2022-12-18T13:34:18;11.27;;;8.57;;
7675;SDS011;3880;51.464;-2.566;2022-12-18T13:36:46;10.63;;;7.80;;
7675;SDS011;3880;51.464;-2.566;2022-12-18T13:39:23;10.47;;;7.67;;
7675;SDS011;3880;51.464;-2.566;2022-12-18T13:41:52;13.00;;;9.57;;
7675;SDS011;3880;51.464;-2.566;2022-12-18T13:44:29;9.97;;;7.37;;
7675;SDS011;3880;51.464;-2.566;2022-12-18T13:46:59;7.87;;;6.63;;
7675;SDS011;3880;51.464;-2.566;2022-12-18T13:49:29;7.77;;;6.37;;
7675;SDS011;3880;51.464;-2.566;2022-12-18T13:52:13;7.73;;;6.00;;
7675;SDS011;3880;51.464;-2.566;2022-12-18T13:54:44;7.23;;;5.77;;
7675;SDS011;3880;51.464;-2.566;2022-12-18T13:57:25;8.33;;;5.90;;
7675;SDS011;3880;51.464;-2.566;2022-12-18T13:59:53;8.10;;;6.30;;
7675;SDS011;3880;51.464;-2.566;2022-12-18T14:02:21;7.27;;;6.53;;
7675;SDS011;3880;51.464;-2.566;2022-12-18T14:04:49;6.70;;;5.63;;
7675;SDS011;3880;51.464;-2.566;2022-12-18T14:07:18;7.03;;;5.77;;
7675;SDS011;3880;51.464;-2.566;2022-12-18T14:09:49;7.37;;;6.10;;
7675;SDS011;3880;51.464;-2.566;2022-12-18T14:12:18;7.87;;;6.07;;
7675;SDS011;3880;51.464;-2.566;2022-12-18T14:15:05;8.50;;;6.30;;
7675;SDS011;3880;51.464;-2.566;2022-12-18T14:17:39;7.20;;;4.93;;
7675;SDS011;3880;51.464;-2.566;2022-12-18T14:20:12;6.40;;;4.80;;
7675;SDS011;3880;51.464;-2.566;2022-12-18T14:22:39;6.63;;;4.60;;
7675;SDS011;3880;51.464;-2.566;2022-12-18T14:25:18;4.40;;;3.93;;
7675;SDS011;3880;51.464;-2.566;2022-12-18T14:27:49;5.70;;;4.03;;
7675;SDS011;3880;51.464;-2.566;2022-12-18T14:30:26;3.70;;;3.40;;
7675;SDS011;3880;51.464;-2.566;2022-12-18T14:33:01;2.40;;;2.20;;
7675;SDS011;3880;51.464;-2.566;2022-12-18T14:35:29;3.13;;;2.40;;
7675;SDS011;3880;51.464;-2.566;2022-12-18T14:38:09;3.10;;;2.80;;
7675;SDS011;3880;51.464;-2.566;2022-12-18T14:40:38;2.60;;;2.40;;
7675;SDS011;3880;51.464;-2.566;2022-12-18T14:43:08;2.20;;;2.10;;
7675;SDS011;3880;51.464;-2.566;2022-12-18T14:45:36;2.83;;;2.57;;
7675;SDS011;3880;51.464;-2.566;2022-12-18T14:48:06;3.20;;;2.90;;
7675;SDS011;3880;51.464;-2.566;2022-12-18T14:50:34;5.20;;;2.40;;
7675;SDS011;3880;51.464;-2.566;2022-12-18T14:53:01;2.23;;;2.13;;
7675;SDS011;3880;51.464;-2.566;2022-12-18T14:55:28;2.93;;;2.07;;
7675;SDS011;3880;51.464;-2.566;2022-12-18T14:57:57;2.97;;;2.43;;
7675;SDS011;3880;51.464;-2.566;2022-12-18T15:00:24;3.97;;;2.30;;
7675;SDS011;3880;51.464;-2.566;2022-12-18T15:02:52;2.30;;;2.20;;
7675;SDS011;3880;51.464;-2.566;2022-12-18T15:05:24;6.33;;;2.57;;
7675;SDS011;3880;51.464;-2.566;2022-12-18T15:07:53;4.37;;;2.37;;
7675;SDS011;3880;51.464;-2.566;2022-12-18T15:10:22;3.57;;;2.33;;
7675;SDS011;3880;51.464;-2.566;2022-12-18T15:12:50;4.53;;;2.33;;
7675;SDS011;3880;51.464;-2.566;2022-12-18T15:15:45;2.43;;;2.23;;
7675;SDS011;3880;51.464;-2.566;2022-12-18T15:18:13;4.77;;;2.17;;
7675;SDS011;3880;51.464;-2.566;2022-12-18T15:20:46;2.10;;;1.90;;
7675;SDS011;3880;51.464;-2.566;2022-12-18T15:23:16;2.40;;;2.20;;
7675;SDS011;3880;51.464;-2.566;2022-12-18T15:25:45;4.17;;;3.10;;
7675;SDS011;3880;51.464;-2.566;2022-12-18T15:28:18;5.03;;;2.80;;
7675;SDS011;3880;51.464;-2.566;2022-12-18T15:31:05;3.97;;;1.90;;
7675;SDS011;3880;51.464;-2.566;2022-12-18T15:33:49;3.37;;;2.40;;
7675;SDS011;3880;51.464;-2.566;2022-12-18T15:36:37;2.97;;;2.10;;
7675;SDS011;3880;51.464;-2.566;2022-12-18T15:39:04;2.00;;;1.90;;
7675;SDS011;3880;51.464;-2.566;2022-12-18T15:41:31;6.47;;;2.87;;
7675;SDS011;3880;51.464;-2.566;2022-12-18T15:44:01;2.27;;;2.07;;
7675;SDS011;3880;51.464;-2.566;2022-12-18T15:46:28;5.57;;;2.30;;
7675;SDS011;3880;51.464;-2.566;2022-12-18T15:48:56;3.20;;;1.70;;
7675;SDS011;3880;51.464;-2.566;2022-12-18T15:51:24;3.30;;;2.07;;
7675;SDS011;3880;51.464;-2.566;2022-12-18T15:53:55;3.83;;;2.00;;
7675;SDS011;3880;51.464;-2.566;2022-12-18T15:56:24;2.10;;;2.00;;
7675;SDS011;3880;51.464;-2.566;2022-12-18T15:59:11;2.50;;;2.30;;
7675;SDS011;3880;51.464;-2.566;2022-12-18T16:01:40;5.03;;;2.40;;
7675;SDS011;3880;51.464;-2.566;2022-12-18T16:04:08;3.50;;;2.33;;
7675;SDS011;3880;51.464;-2.566;2022-12-18T16:06:38;2.63;;;2.03;;
7675;SDS011;3880;51.464;-2.566;2022-12-18T16:09:05;3.40;;;2.10;;
7675;SDS011;3880;51.464;-2.566;2022-12-18T16:11:33;2.17;;;1.97;;
7675;SDS011;3880;51.464;-2.566;2022-12-18T16:14:07;2.87;;;2.33;;
7675;SDS011;3880;51.464;-2.566;2022-12-18T16:16:42;2.73;;;2.53;;
7675;SDS011;3880;51.464;-2.566;2022-12-18T16:19:10;3.00;;;2.30;;
7675;SDS011;3880;51.464;-2.566;2022-12-18T16:21:37;2.20;;;2.00;;
7675;SDS011;3880;51.464;-2.566;2022-12-18T16:24:04;2.60;;;2.47;;
7675;SDS011;3880;51.464;-2.566;2022-12-18T16:26:31;3.40;;;3.10;;
7675;SDS011;3880;51.464;-2.566;2022-12-18T16:28:58;3.33;;;2.37;;
7675;SDS011;3880;51.464;-2.566;2022-12-18T16:31:27;4.10;;;2.70;;
7675;SDS011;3880;51.464;-2.566;2022-12-18T16:36:36;2.93;;;2.60;;
7675;SDS011;3880;51.464;-2.566;2022-12-18T16:39:03;4.23;;;2.50;;
7675;SDS011;3880;51.464;-2.566;2022-12-18T16:41:30;3.27;;;2.30;;
7675;SDS011;3880;51.464;-2.566;2022-12-18T16:43:58;2.90;;;2.70;;
7675;SDS011;3880;51.464;-2.566;2022-12-18T16:46:26;3.97;;;2.90;;
7675;SDS011;3880;51.464;-2.566;2022-12-18T16:48:53;3.90;;;2.53;;
7675;SDS011;3880;51.464;-2.566;2022-12-18T16:51:22;5.00;;;2.60;;
7675;SDS011;3880;51.464;-2.566;2022-12-18T16:53:49;4.23;;;2.60;;
7675;SDS011;3880;51.464;-2.566;2022-12-18T16:56:17;5.67;;;3.37;;
7675;SDS011;3880;51.464;-2.566;2022-12-18T16:58:45;3.40;;;3.03;;
7675;SDS011;3880;51.464;-2.566;2022-12-18T17:01:16;5.03;;;3.30;;
7675;SDS011;3880;51.464;-2.566;2022-12-18T17:03:45;6.97;;;3.50;;
7675;SDS011;3880;51.464;-2.566;2022-12-18T17:06:18;4.20;;;3.63;;
7675;SDS011;3880;51.464;-2.566;2022-12-18T17:08:45;5.90;;;3.63;;
7675;SDS011;3880;51.464;-2.566;2022-12-18T17:11:12;4.07;;;3.33;;
7675;SDS011;3880;51.464;-2.566;2022-12-18T17:13:40;5.10;;;4.33;;
7675;SDS011;3880;51.464;-2.566;2022-12-18T17:16:08;4.97;;;3.47;;
7675;SDS011;3880;51.464;-2.566;2022-12-18T17:18:35;4.53;;;4.13;;
7675;SDS011;3880;51.464;-2.566;2022-12-18T17:21:05;4.00;;;3.23;;
7675;SDS011;3880;51.464;-2.566;2022-12-18T17:23:36;4.23;;;2.87;;
7675;SDS011;3880;51.464;-2.566;2022-12-18T17:26:04;6.47;;;3.80;;
7675;SDS011;3880;51.464;-2.566;2022-12-18T17:28:32;5.70;;;3.80;;
7675;SDS011;3880;51.464;-2.566;2022-12-18T17:31:00;5.63;;;3.20;;
7675;SDS011;3880;51.464;-2.566;2022-12-18T17:33:27;6.60;;;3.30;;
7675;SDS011;3880;51.464;-2.566;2022-12-18T17:35:57;4.17;;;3.10;;
7675;SDS011;3880;51.464;-2.566;2022-12-18T17:38:26;5.23;;;3.33;;
7675;SDS011;3880;51.464;-2.566;2022-12-18T17:40:53;5.87;;;3.80;;
7675;SDS011;3880;51.464;-2.566;2022-12-18T17:43:20;7.47;;;3.73;;
7675;SDS011;3880;51.464;-2.566;2022-12-18T17:45:47;4.83;;;2.90;;
7675;SDS011;3880;51.464;-2.566;2022-12-18T17:48:14;5.77;;;4.03;;
7675;SDS011;3880;51.464;-2.566;2022-12-18T17:50:41;5.80;;;3.50;;
7675;SDS011;3880;51.464;-2.566;2022-12-18T17:53:09;8.40;;;3.87;;
7675;SDS011;3880;51.464;-2.566;2022-12-18T17:55:38;6.93;;;3.80;;
7675;SDS011;3880;51.464;-2.566;2022-12-18T17:58:05;7.40;;;4.00;;
7675;SDS011;3880;51.464;-2.566;2022-12-18T18:00:32;7.07;;;3.83;;
7675;SDS011;3880;51.464;-2.566;2022-12-18T18:03:00;6.20;;;3.47;;
7675;SDS011;3880;51.464;-2.566;2022-12-18T18:05:27;8.03;;;3.93;;
7675;SDS011;3880;51.464;-2.566;2022-12-18T18:07:54;5.53;;;3.07;;
7675;SDS011;3880;51.464;-2.566;2022-12-18T18:10:21;7.10;;;3.57;;
7675;SDS011;3880;51.464;-2.566;2022-12-18T18:12:50;6.27;;;3.90;;
7675;SDS011;3880;51.464;-2.566;2022-12-18T18:15:34;13.70;;;4.50;;
7675;SDS011;3880;51.464;-2.566;2022-12-18T18:18:01;6.33;;;3.20;;
7675;SDS011;3880;51.464;-2.566;2022-12-18T18:20:29;4.43;;;3.07;;
7675;SDS011;3880;51.464;-2.566;2022-12-18T18:22:57;7.50;;;3.30;;
7675;SDS011;3880;51.464;-2.566;2022-12-18T18:25:24;5.67;;;3.50;;
7675;SDS011;3880;51.464;-2.566;2022-12-18T18:27:52;4.47;;;3.17;;
7675;SDS011;3880;51.464;-2.566;2022-12-18T18:30:19;7.10;;;3.17;;
7675;SDS011;3880;51.464;-2.566;2022-12-18T18:32:46;9.53;;;5.37;;
7675;SDS011;3880;51.464;-2.566;2022-12-18T18:35:14;4.13;;;3.00;;
7675;SDS011;3880;51.464;-2.566;2022-12-18T18:37:41;5.83;;;3.10;;
7675;SDS011;3880;51.464;-2.566;2022-12-18T18:40:08;6.27;;;2.97;;
7675;SDS011;3880;51.464;-2.566;2022-12-18T18:42:36;5.77;;;2.63;;
7675;SDS011;3880;51.464;-2.566;2022-12-18T18:45:05;3.90;;;2.93;;
7675;SDS011;3880;51.464;-2.566;2022-12-18T18:47:33;7.97;;;3.70;;
7675;SDS011;3880;51.464;-2.566;2022-12-18T18:50:00;6.40;;;3.53;;
7675;SDS011;3880;51.464;-2.566;2022-12-18T18:52:27;6.40;;;3.50;;
7675;SDS011;3880;51.464;-2.566;2022-12-18T18:54:57;6.43;;;3.50;;
7675;SDS011;3880;51.464;-2.566;2022-12-18T18:57:24;6.03;;;3.57;;
7675;SDS011;3880;51.464;-2.566;2022-12-18T18:59:51;7.50;;;3.07;;
7675;SDS011;3880;51.464;-2.566;2022-12-18T19:02:20;3.67;;;2.63;;
7675;SDS011;3880;51.464;-2.566;2022-12-18T19:04:47;8.77;;;3.80;;
7675;SDS011;3880;51.464;-2.566;2022-12-18T19:07:14;6.17;;;2.27;;
7675;SDS011;3880;51.464;-2.566;2022-12-18T19:09:41;8.80;;;3.00;;
7675;SDS011;3880;51.464;-2.566;2022-12-18T19:12:09;4.53;;;2.40;;
7675;SDS011;3880;51.464;-2.566;2022-12-18T19:14:53;6.43;;;3.07;;
7675;SDS011;3880;51.464;-2.566;2022-12-18T19:17:22;5.17;;;2.87;;
7675;SDS011;3880;51.464;-2.566;2022-12-18T19:19:49;7.67;;;2.90;;
7675;SDS011;3880;51.464;-2.566;2022-12-18T19:22:17;3.90;;;2.73;;
7675;SDS011;3880;51.464;-2.566;2022-12-18T19:24:44;10.40;;;3.33;;
7675;SDS011;3880;51.464;-2.566;2022-12-18T19:27:11;9.13;;;2.90;;
7675;SDS011;3880;51.464;-2.566;2022-12-18T19:29:38;6.23;;;2.37;;
7675;SDS011;3880;51.464;-2.566;2022-12-18T19:32:05;7.07;;;2.70;;
7675;SDS011;3880;51.464;-2.566;2022-12-18T19:34:34;8.80;;;3.27;;
7675;SDS011;3880;51.464;-2.566;2022-12-18T19:37:04;7.57;;;3.23;;
7675;SDS011;3880;51.464;-2.566;2022-12-18T19:39:31;8.43;;;3.00;;
7675;SDS011;3880;51.464;-2.566;2022-12-18T19:41:58;6.43;;;2.63;;
7675;SDS011;3880;51.464;-2.566;2022-12-18T19:44:25;6.77;;;2.53;;
7675;SDS011;3880;51.464;-2.566;2022-12-18T19:46:52;4.43;;;2.70;;
7675;SDS011;3880;51.464;-2.566;2022-12-18T19:49:22;6.00;;;2.60;;
7675;SDS011;3880;51.464;-2.566;2022-12-18T19:51:52;8.43;;;2.23;;
7675;SDS011;3880;51.464;-2.566;2022-12-18T19:54:19;5.63;;;2.60;;
7675;SDS011;3880;51.464;-2.566;2022-12-18T19:56:46;8.03;;;2.63;;
7675;SDS011;3880;51.464;-2.566;2022-12-18T19:59:13;10.33;;;2.70;;
7675;SDS011;3880;51.464;-2.566;2022-12-18T20:01:40;12.43;;;3.90;;
7675;SDS011;3880;51.464;-2.566;2022-12-18T20:04:07;5.23;;;2.10;;
7675;SDS011;3880;51.464;-2.566;2022-12-18T20:06:34;6.13;;;2.53;;
7675;SDS011;3880;51.464;-2.566;2022-12-18T20:12:03;6.07;;;2.50;;
7675;SDS011;3880;51.464;-2.566;2022-12-18T20:14:30;4.60;;;2.33;;
7675;SDS011;3880;51.464;-2.566;2022-12-18T20:16:57;7.73;;;2.87;;
7675;SDS011;3880;51.464;-2.566;2022-12-18T20:19:25;8.17;;;3.17;;
7675;SDS011;3880;51.464;-2.566;2022-12-18T20:21:52;7.60;;;2.20;;
7675;SDS011;3880;51.464;-2.566;2022-12-18T20:24:19;4.70;;;2.13;;
7675;SDS011;3880;51.464;-2.566;2022-12-18T20:26:48;3.73;;;1.97;;
7675;SDS011;3880;51.464;-2.566;2022-12-18T20:29:15;2.60;;;1.60;;
7675;SDS011;3880;51.464;-2.566;2022-12-18T20:31:42;3.07;;;1.80;;
7675;SDS011;3880;51.464;-2.566;2022-12-18T20:34:09;7.20;;;2.67;;
7675;SDS011;3880;51.464;-2.566;2022-12-18T20:36:36;4.73;;;2.37;;
7675;SDS011;3880;51.464;-2.566;2022-12-18T20:39:03;3.83;;;2.00;;
7675;SDS011;3880;51.464;-2.566;2022-12-18T20:41:31;1.83;;;1.50;;
7675;SDS011;3880;51.464;-2.566;2022-12-18T20:43:59;2.60;;;1.80;;
7675;SDS011;3880;51.464;-2.566;2022-12-18T20:46:27;3.93;;;2.33;;
7675;SDS011;3880;51.464;-2.566;2022-12-18T20:48:54;3.60;;;2.30;;
7675;SDS011;3880;51.464;-2.566;2022-12-18T20:51:21;1.60;;;1.50;;
7675;SDS011;3880;51.464;-2.566;2022-12-18T20:53:50;4.20;;;2.03;;
7675;SDS011;3880;51.464;-2.566;2022-12-18T20:56:20;3.50;;;2.13;;
7675;SDS011;3880;51.464;-2.566;2022-12-18T20:58:48;3.37;;;1.70;;
7675;SDS011;3880;51.464;-2.566;2022-12-18T21:01:18;2.80;;;1.93;;
7675;SDS011;3880;51.464;-2.566;2022-12-18T21:03:46;3.03;;;1.70;;
7675;SDS011;3880;51.464;-2.566;2022-12-18T21:06:14;2.27;;;1.63;;
7675;SDS011;3880;51.464;-2.566;2022-12-18T21:08:42;3.53;;;1.50;;
7675;SDS011;3880;51.464;-2.566;2022-12-18T21:11:13;1.73;;;1.63;;
7675;SDS011;3880;51.464;-2.566;2022-12-18T21:13:55;3.33;;;1.87;;
7675;SDS011;3880;51.464;-2.566;2022-12-18T21:16:24;6.20;;;2.00;;
7675;SDS011;3880;51.464;-2.566;2022-12-18T21:18:51;1.90;;;1.80;;